This is the latest recevied weather packets stored in our database for station/object WX4ET. If no packets are shown the sender has not sent any weather packets the latest 10 day(s).
| Time | Temp. | Humidity | Pressure | Rain* | Wind** | Luminosity | Snow |
|---|---|---|---|---|---|---|---|
| 1777841519 | 18.33° C | 37% | 1012.1 hPa | 0 mm | - | 444 W/m² | - |
| 1777841215 | 18.89° C | 38% | 1012.4 hPa | 0 mm | - | 464 W/m² | - |
| 1777840913 | 18.89° C | 40% | 1012.2 hPa | 0 mm | - | 468 W/m² | - |
| 1777840610 | 18.33° C | 40% | 1012.5 hPa | 0 mm | - | 487 W/m² | - |
| 1777840308 | 18.33° C | 39% | 1012.5 hPa | 0 mm | - | 494 W/m² | - |
| 1777840004 | 17.78° C | 40% | 1012.6 hPa | 0 mm | - | 502 W/m² | - |
| 1777839703 | 17.78° C | 37% | 1012.8 hPa | 0 mm | - | 514 W/m² | - |
| 1777839401 | 18.33° C | 38% | 1012.8 hPa | 0 mm | - | 512 W/m² | - |
| 1777839097 | 17.78° C | 39% | 1013 hPa | 0 mm | - | 539 W/m² | - |
| 1777838793 | 17.22° C | 37% | 1012.9 hPa | 0 mm | - | 532 W/m² | - |
| 1777838490 | 17.78° C | 38% | 1013 hPa | 0 mm | - | 540 W/m² | - |
| 1777838187 | 17.78° C | 38% | 1013.1 hPa | 0 mm | - | 560 W/m² | - |
| 1777837884 | 17.78° C | 36% | 1013.1 hPa | 0 mm | - | 562 W/m² | - |
| 1777837581 | 18.33° C | 35% | 1013.2 hPa | 0 mm | - | 568 W/m² | - |
| 1777837276 | 17.22° C | 36% | 1013.4 hPa | 0 mm | - | 577 W/m² | - |
| 1777836973 | 17.78° C | 37% | 1013.4 hPa | 0 mm | - | 586 W/m² | - |
| 1777836669 | 17.78° C | 38% | 1013.5 hPa | 0 mm | - | 583 W/m² | - |
| 1777836365 | 17.22° C | 38% | 1013.7 hPa | 0 mm | - | 597 W/m² | - |
| 1777836061 | 17.22° C | 39% | 1013.9 hPa | 0 mm | - | 606 W/m² | - |
| 1777835758 | 17.22° C | 38% | 1013.8 hPa | 0 mm | - | 606 W/m² | - |
| 1777835454 | 16.67° C | 39% | 1013.8 hPa | 0 mm | - | 613 W/m² | - |
| 1777835151 | 17.22° C | 39% | 1013.9 hPa | 0 mm | - | 619 W/m² | - |
| 1777834849 | 17.78° C | 41% | 1014 hPa | 0 mm | - | 610 W/m² | - |
| 1777834545 | 16.67° C | 36% | 1014 hPa | 0 mm | - | 617 W/m² | - |
| 1777834245 | 15.56° C | 39% | 1014.2 hPa | 0 mm | - | 626 W/m² | - |
* Rain latest hour (hover to see other rain measurements)
** Current wind speed in m/s (hover to see current wind gust speed)